Time;durP1;ratioP1;P1;durP2;ratioP2;P2;SDS_P1;SDS_P2;PMS_P1;PMS_P2;Temp;Humidity;BMP_temperature;BMP_pressure;BME280_temperature;BME280_humidity;BME280_pressure;Samples;Min_cycle;Max_cycle;Signal;HPM_P1;HPM_P2
2022/06/29 00:00:20;;;;;;;7.10;3.05;;;;;;;21.97;54.26;96565.75;5014555;28;20081;-61
2022/06/29 00:02:48;;;;;;;7.18;3.33;;;;;;;21.96;54.92;96572.91;5014517;28;20480;-61
2022/06/29 00:05:17;;;;;;;6.88;2.88;;;;;;;21.99;54.85;96581.59;5014523;28;20076;-61
2022/06/29 00:07:45;;;;;;;6.25;3.13;;;;;;;22.00;54.57;96585.97;5014482;28;20046;-61
2022/06/29 00:10:15;;;;;;;3.78;2.70;;;;;;;21.92;54.13;96589.28;5014584;28;20081;-61
2022/06/29 00:12:44;;;;;;;4.38;3.30;;;;;;;21.90;54.29;96594.72;5014198;28;20053;-61
2022/06/29 00:15:12;;;;;;;5.68;2.65;;;;;;;21.95;53.78;96603.16;5014172;28;20132;-60
2022/06/29 00:17:39;;;;;;;5.88;2.72;;;;;;;22.01;53.02;96608.94;5014122;28;20104;-61
2022/06/29 00:20:10;;;;;;;7.75;3.05;;;;;;;22.02;53.07;96611.50;5014091;28;20041;-61
2022/06/29 00:22:38;;;;;;;7.55;2.80;;;;;;;21.95;53.92;96608.47;5014097;28;20137;-61
2022/06/29 00:25:06;;;;;;;3.97;3.25;;;;;;;21.98;53.11;96607.41;5013430;28;20096;-61
2022/06/29 00:27:34;;;;;;;8.48;3.05;;;;;;;21.98;54.69;96604.72;5013706;28;20089;-61
2022/06/29 00:30:02;;;;;;;3.80;3.03;;;;;;;21.87;54.47;96602.97;5013980;28;20082;-61
2022/06/29 00:32:30;;;;;;;5.35;3.35;;;;;;;21.79;55.41;96608.91;5013896;28;20054;-60
2022/06/29 00:34:58;;;;;;;3.55;2.92;;;;;;;21.63;54.85;96609.31;5013889;28;20522;-61
2022/06/29 00:37:25;;;;;;;3.17;2.70;;;;;;;21.61;55.00;96615.75;5013770;28;20511;-61
2022/06/29 00:39:52;;;;;;;4.35;3.00;;;;;;;21.60;56.81;96606.91;5013876;28;20104;-61
2022/06/29 00:42:20;;;;;;;6.47;3.15;;;;;;;21.51;57.38;96610.31;5013813;28;20046;-61
2022/06/29 00:44:48;;;;;;;3.55;2.83;;;;;;;21.39;57.52;96612.16;5013815;28;20046;-61
2022/06/29 00:47:15;;;;;;;9.65;2.70;;;;;;;21.25;57.23;96616.78;5013703;28;20046;-60
2022/06/29 00:49:42;;;;;;;6.90;3.47;;;;;;;21.17;56.66;96614.75;5013689;28;20046;-60
2022/06/29 00:52:11;;;;;;;5.65;3.35;;;;;;;21.16;56.77;96615.72;5013622;28;20053;-61
2022/06/29 00:54:41;;;;;;;7.18;3.13;;;;;;;21.17;57.15;96606.78;5013662;28;20108;-60
2022/06/29 00:57:12;;;;;;;4.65;2.90;;;;;;;21.07;57.91;96608.50;5013570;28;20092;-60
2022/06/29 00:59:45;;;;;;;5.68;3.53;;;;;;;20.90;58.47;96597.38;5013488;28;20057;-61
2022/06/29 01:02:16;;;;;;;5.97;3.13;;;;;;;20.81;58.45;96598.06;5013521;28;20049;-60
2022/06/29 01:04:44;;;;;;;7.40;3.63;;;;;;;20.58;59.67;96592.75;5013416;28;20053;-60
2022/06/29 01:07:13;;;;;;;3.90;3.13;;;;;;;20.48;60.06;96600.59;5013290;28;20081;-61
2022/06/29 01:09:41;;;;;;;4.88;3.22;;;;;;;20.42;60.19;96591.28;5013327;28;20046;-60
2022/06/29 01:12:09;;;;;;;5.30;3.08;;;;;;;20.38;60.30;96583.69;5013331;28;20058;-60
2022/06/29 01:14:36;;;;;;;3.83;3.20;;;;;;;20.35;60.77;96581.25;5013346;28;20077;-60
2022/06/29 01:17:03;;;;;;;4.90;3.13;;;;;;;20.27;60.75;96579.19;5013196;28;20096;-61
2022/06/29 01:19:32;;;;;;;3.83;3.33;;;;;;;20.21;60.92;96556.63;5013423;28;20084;-61
2022/06/29 01:22:09;;;;;;;5.00;2.95;;;;;;;20.20;61.47;96555.75;5013336;28;20057;-61
2022/06/29 01:24:36;;;;;;;5.38;3.00;;;;;;;20.06;61.39;96558.63;5013361;28;20073;-60
2022/06/29 01:27:04;;;;;;;4.80;2.80;;;;;;;20.01;61.98;96558.97;5012924;28;20056;-61
2022/06/29 01:29:31;;;;;;;3.17;2.88;;;;;;;19.92;62.02;96563.16;5013304;28;20064;-61
2022/06/29 01:31:59;;;;;;;4.07;3.25;;;;;;;19.82;62.26;96563.03;5013055;28;20458;-61
2022/06/29 01:34:28;;;;;;;4.97;3.22;;;;;;;19.75;62.53;96567.06;5013306;28;20115;-61
2022/06/29 01:36:55;;;;;;;6.60;3.47;;;;;;;19.73;62.99;96568.16;5015574;28;20129;-61
2022/06/29 01:39:24;;;;;;;8.23;3.33;;;;;;;19.64;62.92;96559.09;5017078;28;20046;-61
2022/06/29 01:41:51;;;;;;;4.40;3.42;;;;;;;19.57;62.64;96559.53;5017175;28;20061;-61
2022/06/29 01:44:18;;;;;;;6.20;2.95;;;;;;;19.53;63.16;96560.72;5017126;28;20097;-61
2022/06/29 01:46:46;;;;;;;4.60;3.03;;;;;;;19.48;63.53;96564.69;5016977;28;20073;-61
2022/06/29 01:49:13;;;;;;;3.60;3.30;;;;;;;19.37;63.98;96560.16;5016966;28;20057;-61
2022/06/29 01:51:41;;;;;;;6.53;3.30;;;;;;;19.26;63.98;96558.31;5016946;28;20092;-61
2022/06/29 01:54:08;;;;;;;7.38;3.50;;;;;;;19.19;64.10;96553.47;5016762;28;20119;-61
2022/06/29 01:56:37;;;;;;;3.58;3.28;;;;;;;19.11;64.38;96553.16;5016819;28;20053;-61
2022/06/29 01:59:05;;;;;;;5.93;3.40;;;;;;;18.99;64.66;96556.69;5016729;28;20046;-61
2022/06/29 02:01:32;;;;;;;3.70;3.20;;;;;;;18.78;64.81;96551.97;5016721;28;20081;-61
2022/06/29 02:04:00;;;;;;;7.78;3.53;;;;;;;18.58;65.64;96562.19;5016689;28;20042;-61
2022/06/29 02:06:27;;;;;;;5.57;3.13;;;;;;;18.35;66.25;96559.31;5016687;28;20511;-61
2022/06/29 02:08:54;;;;;;;4.07;3.50;;;;;;;18.35;66.57;96561.13;5016641;28;20046;-61
2022/06/29 02:11:23;;;;;;;9.00;3.55;;;;;;;18.35;66.35;96566.41;5016474;28;20076;-60
2022/06/29 02:13:52;;;;;;;4.15;3.17;;;;;;;18.30;66.49;96566.72;5016454;28;20081;-61
2022/06/29 02:16:19;;;;;;;5.60;3.55;;;;;;;18.26;66.61;96570.53;5016407;28;20073;-60
2022/06/29 02:18:46;;;;;;;3.38;3.08;;;;;;;18.22;67.12;96561.97;5016517;28;20049;-60
2022/06/29 02:21:14;;;;;;;8.88;3.72;;;;;;;18.17;67.01;96559.66;5016456;28;20073;-61
2022/06/29 02:23:41;;;;;;;4.22;2.85;;;;;;;18.18;66.93;96560.47;5016428;28;20133;-61
2022/06/29 02:26:08;;;;;;;6.95;3.75;;;;;;;18.09;67.31;96556.63;5016246;28;20058;-61
2022/06/29 02:28:35;;;;;;;9.63;3.38;;;;;;;18.03;67.47;96555.25;5016072;28;20120;-61
2022/06/29 02:36:33;;;;;;;3.83;3.00;;;;;;;17.93;67.96;96541.81;5016197;28;20400;-61
2022/06/29 02:39:00;;;;;;;16.23;4.05;;;;;;;17.92;67.91;96536.63;5016081;28;20073;-61
2022/06/29 02:41:27;;;;;;;5.38;3.95;;;;;;;17.91;68.06;96550.81;5016125;28;20054;-60
2022/06/29 02:43:55;;;;;;;5.57;3.22;;;;;;;17.80;68.21;96543.59;5016054;28;20078;-61
2022/06/29 02:46:23;;;;;;;4.45;3.30;;;;;;;17.83;68.54;96539.88;5015455;28;20060;-60
2022/06/29 02:48:50;;;;;;;3.70;3.28;;;;;;;17.88;68.28;96535.16;5015811;28;20050;-61
2022/06/29 02:51:17;;;;;;;4.10;3.65;;;;;;;17.83;68.60;96543.41;5015891;28;20045;-60
2022/06/29 02:53:44;;;;;;;5.50;3.10;;;;;;;17.77;68.77;96538.50;5015720;28;20121;-61
2022/06/29 02:56:12;;;;;;;4.10;3.33;;;;;;;17.72;69.02;96548.53;5015696;28;20050;-61
2022/06/29 02:58:39;;;;;;;5.03;3.45;;;;;;;17.72;69.00;96545.91;5015653;28;20484;-61
2022/06/29 03:01:06;;;;;;;3.78;3.17;;;;;;;17.72;69.19;96535.31;5015680;28;20077;-61
2022/06/29 03:03:35;;;;;;;6.32;3.50;;;;;;;17.72;69.07;96538.81;5015583;28;20129;-61
2022/06/29 03:06:02;;;;;;;4.10;3.70;;;;;;;17.70;69.11;96542.53;5015560;28;20056;-60
2022/06/29 03:08:29;;;;;;;5.60;3.30;;;;;;;17.66;69.40;96542.72;5015520;28;20046;-61
2022/06/29 03:10:56;;;;;;;7.13;3.83;;;;;;;17.73;69.41;96545.78;5015459;28;20053;-61
2022/06/29 03:13:23;;;;;;;4.35;3.38;;;;;;;17.58;69.67;96542.38;5015364;28;20053;-60
2022/06/29 03:15:51;;;;;;;5.50;3.45;;;;;;;17.65;69.87;96542.81;5015393;28;20458;-61
2022/06/29 03:18:18;;;;;;;5.72;3.53;;;;;;;17.62;69.65;96535.94;5015219;28;20045;-61
2022/06/29 03:20:47;;;;;;;3.35;3.05;;;;;;;17.63;69.86;96540.28;5015321;28;20385;-61
2022/06/29 03:23:14;;;;;;;3.40;3.10;;;;;;;17.66;69.92;96544.50;5015147;28;20077;-61
2022/06/29 03:25:41;;;;;;;5.20;3.88;;;;;;;17.64;69.91;96543.78;5015239;28;20050;-61
2022/06/29 03:28:08;;;;;;;3.92;3.47;;;;;;;17.74;69.85;96531.63;5014991;28;20045;-61
2022/06/29 03:30:36;;;;;;;5.63;3.33;;;;;;;17.87;69.79;96536.94;5015139;28;20053;-61
2022/06/29 03:33:03;;;;;;;5.70;3.25;;;;;;;18.06;69.16;96538.31;5014917;28;20045;-60
2022/06/29 03:35:30;;;;;;;5.35;3.20;;;;;;;18.33;68.48;96533.91;5015056;28;20504;-60
2022/06/29 03:37:58;;;;;;;5.63;3.20;;;;;;;18.65;67.34;96530.78;5014968;28;20100;-61
2022/06/29 03:40:26;;;;;;;5.53;2.80;;;;;;;18.95;66.30;96540.16;5014927;28;20138;-61
2022/06/29 03:42:54;;;;;;;6.70;3.22;;;;;;;19.30;65.45;96542.06;5014973;28;20085;-61
2022/06/29 03:45:22;;;;;;;4.03;3.42;;;;;;;19.64;64.22;96533.41;5014689;28;20488;-61
2022/06/29 03:47:49;;;;;;;2.92;2.70;;;;;;;20.01;63.01;96528.94;5014651;28;20076;-61
2022/06/29 03:50:16;;;;;;;3.40;2.88;;;;;;;20.36;62.03;96527.16;5014695;28;20052;-61
2022/06/29 03:52:43;;;;;;;5.70;3.00;;;;;;;20.70;61.10;96529.81;5014502;28;20073;-61
2022/06/29 03:55:12;;;;;;;4.82;2.58;;;;;;;21.07;60.54;96526.06;5014700;28;20104;-61
2022/06/29 03:57:39;;;;;;;6.10;2.67;;;;;;;21.44;59.31;96528.38;5014634;28;20045;-61
2022/06/29 04:00:07;;;;;;;3.22;2.60;;;;;;;21.78;58.36;96529.19;5013682;28;20053;-62
2022/06/29 04:02:34;;;;;;;3.10;2.33;;;;;;;22.10;57.57;96528.28;5014506;28;20041;-61
2022/06/29 04:05:02;;;;;;;4.78;2.95;;;;;;;22.44;56.61;96529.84;5014354;28;20050;-61
2022/06/29 04:07:30;;;;;;;4.38;2.67;;;;;;;22.78;55.81;96532.25;5014180;28;20053;-61
2022/06/29 04:09:59;;;;;;;3.40;2.90;;;;;;;23.13;55.00;96535.44;5014405;28;20046;-62
2022/06/29 04:12:29;;;;;;;5.50;3.10;;;;;;;23.51;53.36;96538.31;5014312;28;20085;-62
2022/06/29 04:14:56;;;;;;;3.92;2.72;;;;;;;23.91;52.26;96540.97;5014275;28;20462;-62
2022/06/29 04:17:24;;;;;;;4.32;3.20;;;;;;;24.25;51.40;96539.66;5014250;28;20049;-62
2022/06/29 04:19:52;;;;;;;7.60;3.17;;;;;;;24.31;50.37;96539.09;5014167;28;20050;-62
2022/06/29 04:22:20;;;;;;;5.78;2.88;;;;;;;24.23;50.51;96537.16;5014093;28;20514;-62
2022/06/29 04:24:47;;;;;;;3.80;2.70;;;;;;;24.41;52.16;96539.91;5014065;28;20555;-62
2022/06/29 04:27:15;;;;;;;4.65;2.83;;;;;;;24.78;52.00;96537.38;5013592;28;20459;-62
2022/06/29 04:29:43;;;;;;;3.15;2.85;;;;;;;25.14;50.58;96534.81;5014004;28;20124;-62
2022/06/29 04:32:11;;;;;;;6.32;2.70;;;;;;;25.46;50.60;96537.97;5014045;28;20052;-62
2022/06/29 04:34:38;;;;;;;5.03;3.03;;;;;;;25.78;49.07;96544.66;5013949;28;20050;-62
2022/06/29 04:37:05;;;;;;;3.58;2.88;;;;;;;26.17;48.61;96542.59;5013945;28;20045;-62
2022/06/29 04:39:33;;;;;;;4.70;3.03;;;;;;;26.57;46.55;96543.88;5013856;28;20093;-62
2022/06/29 04:42:00;;;;;;;4.57;2.60;;;;;;;26.94;46.45;96544.53;5013943;28;20084;-62
2022/06/29 04:44:27;;;;;;;3.80;2.55;;;;;;;27.40;47.42;96546.03;5013870;28;20073;-62
2022/06/29 04:46:56;;;;;;;8.07;2.85;;;;;;;27.71;45.31;96553.50;5013774;28;20112;-63
2022/06/29 04:49:23;;;;;;;5.45;2.65;;;;;;;27.97;46.25;96554.34;5013641;28;20092;-62
2022/06/29 04:51:51;;;;;;;2.70;2.38;;;;;;;28.26;45.49;96550.25;5013828;28;20416;-62
2022/06/29 04:54:18;;;;;;;5.18;2.42;;;;;;;28.49;44.02;96545.06;5013579;28;20128;-62
2022/06/29 04:56:45;;;;;;;4.03;2.65;;;;;;;28.72;44.29;96543.47;5013754;28;20050;-63
2022/06/29 04:59:12;;;;;;;4.97;3.10;;;;;;;28.85;43.05;96542.91;5013440;28;20057;-62
2022/06/29 05:01:39;;;;;;;2.83;2.47;;;;;;;29.12;44.48;96548.88;5013508;28;20063;-62
2022/06/29 05:04:08;;;;;;;2.70;2.50;;;;;;;29.28;41.96;96547.94;5013526;28;20050;-63
2022/06/29 05:06:35;;;;;;;3.40;2.22;;;;;;;29.19;41.93;96557.09;5013311;28;20133;-63
2022/06/29 05:09:02;;;;;;;5.65;2.35;;;;;;;28.84;40.82;96558.22;5013292;28;20042;-63
2022/06/29 05:11:29;;;;;;;3.05;2.13;;;;;;;28.51;41.03;96572.59;5013136;28;20108;-63
2022/06/29 05:13:57;;;;;;;3.50;1.92;;;;;;;28.32;42.01;96568.44;5013369;28;20078;-62
2022/06/29 05:16:24;;;;;;;2.30;2.10;;;;;;;28.28;41.42;96566.22;5013308;28;20121;-62
2022/06/29 05:18:51;;;;;;;4.95;2.30;;;;;;;28.47;41.82;96568.59;5013303;28;20054;-63
2022/06/29 05:21:20;;;;;;;3.90;1.85;;;;;;;28.66;41.06;96568.38;5013465;28;20392;-63
2022/06/29 05:23:47;;;;;;;2.83;2.05;;;;;;;28.58;39.95;96571.91;5013311;28;20085;-63
2022/06/29 05:26:16;;;;;;;2.83;2.00;;;;;;;28.34;39.69;96570.97;5013193;28;20052;-62
2022/06/29 05:28:43;;;;;;;2.22;1.90;;;;;;;28.19;40.66;96566.25;5012856;28;20053;-62
2022/06/29 05:31:11;;;;;;;2.08;1.80;;;;;;;28.10;40.03;96572.63;5013279;28;20053;-63
2022/06/29 05:33:38;;;;;;;2.97;1.70;;;;;;;27.82;41.15;96579.19;5013162;28;20393;-63
2022/06/29 05:36:06;;;;;;;3.25;2.55;;;;;;;27.83;41.78;96569.28;5013144;28;20635;-63
2022/06/29 05:38:36;;;;;;;6.22;1.95;;;;;;;27.69;41.85;96579.66;5013198;28;20053;-63
2022/06/29 05:41:03;;;;;;;2.95;2.20;;;;;;;27.84;42.98;96579.84;5012994;28;20054;-63
2022/06/29 05:43:31;;;;;;;3.35;2.53;;;;;;;28.01;42.29;96571.81;5013112;28;20112;-62
2022/06/29 05:45:59;;;;;;;2.58;2.30;;;;;;;28.03;40.86;96572.47;5013016;28;20511;-63
2022/06/29 05:48:26;;;;;;;2.88;2.00;;;;;;;28.13;41.50;96573.16;5013003;28;20064;-62
2022/06/29 05:50:53;;;;;;;3.17;2.03;;;;;;;28.19;39.93;96570.78;5013048;28;20117;-62
2022/06/29 05:53:20;;;;;;;4.22;1.88;;;;;;;28.10;40.62;96576.16;5013088;28;20077;-62
2022/06/29 05:55:49;;;;;;;3.00;2.03;;;;;;;28.43;41.55;96574.47;5012922;28;20050;-63
2022/06/29 05:58:19;;;;;;;2.50;2.00;;;;;;;28.64;39.31;96576.63;5012995;28;20050;-63
2022/06/29 06:00:47;;;;;;;4.20;2.10;;;;;;;28.53;39.74;96577.00;5012907;28;20057;-62
2022/06/29 06:03:15;;;;;;;3.35;2.10;;;;;;;28.24;38.89;96573.81;5012838;28;20060;-62
2022/06/29 06:05:42;;;;;;;5.78;2.33;;;;;;;28.21;40.36;96576.84;5012782;28;20128;-62
2022/06/29 06:08:09;;;;;;;2.95;2.38;;;;;;;28.50;40.20;96573.63;5012724;28;20054;-62
2022/06/29 06:10:36;;;;;;;4.78;2.20;;;;;;;28.60;38.25;96575.28;5012797;28;20488;-63
2022/06/29 06:13:06;;;;;;;2.88;2.33;;;;;;;28.72;36.80;96583.84;5012779;28;20072;-62
2022/06/29 06:15:34;;;;;;;4.70;2.70;;;;;;;28.73;35.90;96582.81;5012807;28;20042;-62
2022/06/29 06:18:01;;;;;;;5.80;2.40;;;;;;;28.92;37.98;96573.50;5012742;28;20217;-62
2022/06/29 06:20:29;;;;;;;4.72;2.20;;;;;;;29.04;36.63;96575.84;5012817;28;20050;-62
2022/06/29 06:22:57;;;;;;;3.45;2.50;;;;;;;29.10;36.87;96580.50;5014986;28;20046;-62
2022/06/29 06:25:24;;;;;;;3.33;2.53;;;;;;;29.32;36.55;96570.00;5016329;28;20137;-62
2022/06/29 06:27:51;;;;;;;3.85;2.33;;;;;;;29.63;35.34;96571.84;5016082;28;20058;-62
2022/06/29 06:30:19;;;;;;;5.20;2.70;;;;;;;29.73;35.51;96569.75;5016255;28;20542;-62
2022/06/29 06:32:47;;;;;;;3.92;2.50;;;;;;;29.90;36.59;96572.31;5016253;28;20050;-62
2022/06/29 06:35:15;;;;;;;3.30;2.40;;;;;;;29.93;33.75;96571.13;5016238;28;20046;-62
2022/06/29 06:37:42;;;;;;;3.22;2.88;;;;;;;30.07;33.37;96570.31;5016226;28;20537;-62
2022/06/29 06:42:55;;;;;;;6.97;2.70;;;;;;;29.84;32.04;96573.88;5016178;28;20053;-62
2022/06/29 06:45:24;;;;;;;5.53;2.90;;;;;;;29.84;32.77;96568.50;5016054;28;20052;-62
2022/06/29 06:47:52;;;;;;;4.85;2.92;;;;;;;30.01;33.62;96565.69;5015834;28;20506;-62
2022/06/29 06:50:19;;;;;;;4.82;2.60;;;;;;;30.29;33.08;96565.13;5015873;28;20054;-63
2022/06/29 06:52:46;;;;;;;5.28;2.80;;;;;;;30.69;32.82;96567.56;5015829;28;20042;-63
2022/06/29 06:55:14;;;;;;;6.40;2.38;;;;;;;30.85;30.44;96560.34;5016038;28;20050;-63
2022/06/29 06:57:42;;;;;;;3.03;2.60;;;;;;;30.57;30.65;96563.63;5015796;28;20413;-62
2022/06/29 07:00:10;;;;;;;3.15;2.50;;;;;;;30.89;33.18;96558.94;5015718;28;20057;-63
2022/06/29 07:02:40;;;;;;;8.20;2.80;;;;;;;31.16;30.18;96567.38;5015629;28;20046;-62
2022/06/29 07:05:08;;;;;;;3.65;2.63;;;;;;;31.25;31.56;96565.41;5015686;28;20069;-63
2022/06/29 07:07:35;;;;;;;5.20;2.70;;;;;;;31.14;31.70;96564.00;5015420;28;20137;-62
2022/06/29 07:10:02;;;;;;;6.43;3.03;;;;;;;30.91;32.92;96566.84;5015374;28;20053;-62
2022/06/29 07:12:30;;;;;;;4.68;2.53;;;;;;;31.11;34.46;96567.09;5015496;28;20081;-62
2022/06/29 07:14:57;;;;;;;8.77;2.47;;;;;;;31.04;30.42;96571.56;5015529;28;20068;-62
2022/06/29 07:17:25;;;;;;;6.82;2.78;;;;;;;30.74;31.50;96575.09;5015323;28;20540;-62
2022/06/29 07:19:53;;;;;;;3.55;2.00;;;;;;;30.87;31.74;96569.06;5015370;28;20057;-63
2022/06/29 07:22:21;;;;;;;5.03;2.20;;;;;;;31.09;33.00;96559.19;5015268;28;20050;-62
2022/06/29 07:24:48;;;;;;;4.30;2.20;;;;;;;30.89;31.02;96567.03;5015268;28;20117;-62
2022/06/29 07:27:16;;;;;;;2.60;2.05;;;;;;;30.81;32.13;96572.50;5014902;28;20133;-62
2022/06/29 07:29:43;;;;;;;7.90;2.28;;;;;;;31.14;32.23;96569.41;5015052;28;20046;-62
2022/06/29 07:32:11;;;;;;;2.50;2.20;;;;;;;30.99;30.57;96577.53;5015211;28;20045;-62
2022/06/29 07:34:38;;;;;;;4.65;2.00;;;;;;;30.80;28.67;96569.00;5014950;28;20042;-62
2022/06/29 07:37:07;;;;;;;6.55;2.33;;;;;;;30.63;30.86;96560.19;5015069;28;20081;-62
2022/06/29 07:39:34;;;;;;;3.08;2.10;;;;;;;31.01;29.96;96573.66;5014908;28;20053;-62
2022/06/29 07:42:01;;;;;;;5.93;1.88;;;;;;;30.71;30.09;96568.22;5014864;28;20185;-62
2022/06/29 07:44:28;;;;;;;6.93;2.67;;;;;;;30.66;29.13;96570.63;5014846;28;20050;-62
2022/06/29 07:46:56;;;;;;;4.70;2.05;;;;;;;30.74;31.65;96569.72;5014706;28;20054;-62
2022/06/29 07:49:24;;;;;;;4.18;1.65;;;;;;;30.97;29.76;96569.63;5014764;28;20081;-62
2022/06/29 07:51:53;;;;;;;4.22;1.70;;;;;;;31.14;29.26;96575.66;5014715;28;20050;-62
2022/06/29 07:54:22;;;;;;;5.40;1.90;;;;;;;31.27;29.23;96583.09;5014701;28;20129;-62
2022/06/29 07:56:49;;;;;;;4.38;2.00;;;;;;;31.41;28.78;96575.16;5014663;28;20105;-62
2022/06/29 07:59:16;;;;;;;9.65;2.17;;;;;;;31.62;28.64;96581.63;5014542;28;20050;-62
2022/06/29 08:01:43;;;;;;;8.30;2.17;;;;;;;31.63;28.48;96577.88;5014507;28;20161;-62
2022/06/29 08:04:11;;;;;;;5.05;2.42;;;;;;;31.99;28.78;96581.63;5014532;28;20057;-62
2022/06/29 08:06:39;;;;;;;6.65;2.30;;;;;;;31.84;28.10;96577.06;5014441;28;20096;-62
2022/06/29 08:09:06;;;;;;;2.20;1.70;;;;;;;32.03;29.29;96583.72;5014381;28;20088;-62
2022/06/29 08:11:35;;;;;;;9.48;2.42;;;;;;;32.10;28.65;96580.22;5014373;28;20087;-62
2022/06/29 08:14:02;;;;;;;3.38;2.08;;;;;;;32.27;28.97;96578.91;5014367;28;20480;-62
2022/06/29 08:16:30;;;;;;;7.30;2.05;;;;;;;32.29;26.32;96584.13;5014347;28;20096;-62
2022/06/29 08:18:57;;;;;;;4.50;2.13;;;;;;;32.23;27.88;96582.22;5014288;28;20050;-62
2022/06/29 08:21:24;;;;;;;6.72;2.15;;;;;;;31.89;27.44;96584.59;5014324;28;20492;-62
2022/06/29 08:23:51;;;;;;;5.32;1.85;;;;;;;31.61;26.17;96591.63;5014238;28;20042;-61
2022/06/29 08:26:18;;;;;;;5.43;2.17;;;;;;;31.62;26.37;96587.88;5014009;28;20045;-61
2022/06/29 08:28:47;;;;;;;6.32;2.55;;;;;;;31.38;25.45;96589.06;5013898;28;20050;-62
2022/06/29 08:31:14;;;;;;;10.48;3.03;;;;;;;31.26;25.77;96594.06;5013908;28;20052;-62
2022/06/29 08:33:43;;;;;;;8.20;2.15;;;;;;;30.92;26.52;96585.56;5013828;28;20448;-62
2022/06/29 08:36:10;;;;;;;3.85;1.90;;;;;;;30.98;25.56;96576.72;5013792;28;20055;-62
2022/06/29 08:38:38;;;;;;;5.85;2.00;;;;;;;31.26;26.77;96580.56;5014009;28;20480;-62
2022/06/29 08:41:05;;;;;;;7.72;2.15;;;;;;;31.38;25.88;96575.53;5013958;28;20495;-62
2022/06/29 08:43:34;;;;;;;8.45;2.22;;;;;;;30.94;24.56;96578.09;5014032;28;20129;-62
2022/06/29 08:46:04;;;;;;;6.97;1.80;;;;;;;31.08;25.27;96573.72;5013337;28;20057;-62
2022/06/29 08:48:32;;;;;;;6.05;1.80;;;;;;;31.04;26.61;96580.53;5013653;28;20046;-62
2022/06/29 08:51:00;;;;;;;5.03;1.80;;;;;;;31.20;25.26;96587.56;5013557;28;20514;-61
2022/06/29 08:53:27;;;;;;;8.55;1.77;;;;;;;31.13;24.57;96578.56;5013703;28;20072;-62
2022/06/29 08:55:55;;;;;;;6.45;1.90;;;;;;;30.93;25.71;96576.44;5013612;28;20050;-62
2022/06/29 08:58:24;;;;;;;6.47;2.20;;;;;;;31.09;26.00;96569.16;5013529;28;20415;-62
2022/06/29 09:00:52;;;;;;;8.10;2.03;;;;;;;31.19;25.40;96580.50;5013550;28;20484;-61
2022/06/29 09:03:23;;;;;;;3.38;1.90;;;;;;;31.31;26.35;96574.59;5013448;28;20136;-62
2022/06/29 09:05:51;;;;;;;10.73;2.50;;;;;;;31.40;25.51;96579.72;5013446;28;20045;-62
2022/06/29 09:08:19;;;;;;;6.10;2.00;;;;;;;31.42;25.98;96581.41;5013290;28;20046;-62
2022/06/29 09:10:47;;;;;;;5.28;1.65;;;;;;;30.92;26.32;96573.91;5013443;28;20064;-62
2022/06/29 09:13:19;;;;;;;3.50;2.08;;;;;;;31.04;26.77;96587.78;5013231;28;20061;-62
2022/06/29 09:15:46;;;;;;;7.82;1.92;;;;;;;30.74;26.47;96580.50;5013296;28;20057;-61
2022/06/29 09:18:26;;;;;;;5.30;2.08;;;;;;;30.93;26.85;96583.69;5013298;28;20061;-61
2022/06/29 09:20:55;;;;;;;11.52;2.53;;;;;;;30.94;25.08;96580.78;5013356;28;20081;-62
2022/06/29 09:23:24;;;;;;;5.78;2.00;;;;;;;31.24;27.46;96585.34;5013248;28;20046;-62
2022/06/29 09:25:52;;;;;;;3.78;1.80;;;;;;;31.17;27.62;96582.53;5013168;28;20057;-62
2022/06/29 09:28:20;;;;;;;5.07;1.83;;;;;;;31.32;29.31;96587.06;5012949;28;20050;-62
2022/06/29 09:30:48;;;;;;;5.47;1.98;;;;;;;31.34;28.39;96591.28;5013175;28;20198;-61
2022/06/29 09:33:16;;;;;;;4.50;2.22;;;;;;;31.36;27.32;96585.72;5013118;28;20042;-62
2022/06/29 09:35:45;;;;;;;8.18;2.40;;;;;;;31.24;27.11;96588.84;5013212;28;20108;-62
2022/06/29 09:38:23;;;;;;;8.88;2.10;;;;;;;31.11;27.23;96594.09;5013164;28;20403;-61
2022/06/29 09:41:05;;;;;;;5.32;2.25;;;;;;;31.07;28.53;96580.16;5013052;28;20093;-62
2022/06/29 09:43:35;;;;;;;5.15;2.10;;;;;;;31.35;26.92;96589.44;5013063;28;20141;-62
2022/06/29 09:46:03;;;;;;;10.07;2.20;;;;;;;31.61;29.09;96588.91;5013203;28;20050;-62
2022/06/29 09:48:32;;;;;;;8.73;2.00;;;;;;;31.92;27.26;96586.94;5012884;28;20527;-62
2022/06/29 09:51:30;;;;;;;4.40;1.80;;;;;;;31.96;25.62;96590.13;5012910;28;20454;-62
2022/06/29 09:53:51;;;;;;;6.90;2.10;;;;;;;32.08;26.37;96583.13;5012799;28;20050;-62
2022/06/29 09:56:21;;;;;;;6.87;2.03;;;;;;;31.96;26.96;96584.69;5012944;28;20282;-62
2022/06/29 09:58:50;;;;;;;6.60;2.22;;;;;;;32.01;25.84;96582.25;5016747;28;20283;-62
2022/06/29 10:04:02;;;;;;;5.53;1.98;;;;;;;31.90;26.66;96578.16;5016863;28;20056;-62
2022/06/29 10:06:32;;;;;;;6.10;2.10;;;;;;;31.93;25.77;96577.78;5016710;28;20452;-62
2022/06/29 10:08:59;;;;;;;5.82;1.98;;;;;;;32.07;25.65;96570.66;5016498;28;20492;-62
2022/06/29 10:14:37;;;;;;;3.85;1.58;;;;;;;31.92;26.65;96576.13;5016815;28;20064;-62
2022/06/29 10:17:14;;;;;;;4.20;1.77;;;;;;;32.05;25.80;96580.81;5016608;28;20053;-62
2022/06/29 10:19:51;;;;;;;5.13;1.90;;;;;;;31.59;25.68;96573.91;5016444;28;20053;-61
2022/06/29 10:22:19;;;;;;;3.78;1.52;;;;;;;31.66;26.39;96582.91;5016399;28;20126;-62
2022/06/29 10:25:04;;;;;;;5.15;1.80;;;;;;;31.63;28.04;96586.00;5016454;28;20065;-62
2022/06/29 10:27:32;;;;;;;4.35;1.80;;;;;;;31.57;25.09;96590.31;5016051;28;20058;-62
2022/06/29 10:30:23;;;;;;;3.42;1.67;;;;;;;31.34;27.20;96577.78;5016240;28;20057;-62
2022/06/29 10:32:51;;;;;;;6.35;2.05;;;;;;;31.39;27.82;96569.09;5012026;28;20053;-62
2022/06/29 10:35:19;;;;;;;3.78;2.20;;;;;;;31.71;30.25;96564.25;5016223;28;20096;-62
2022/06/29 10:37:52;;;;;;;4.00;1.77;;;;;;;31.59;27.21;96568.50;5016183;28;20062;-62
2022/06/29 10:40:24;;;;;;;7.45;2.10;;;;;;;31.61;26.24;96558.34;5016133;28;20053;-62
2022/06/29 10:43:09;;;;;;;8.13;2.20;;;;;;;31.49;27.21;96560.72;5015989;28;20512;-62
2022/06/29 10:45:44;;;;;;;5.93;1.80;;;;;;;31.44;26.76;96557.72;5015932;28;20065;-61
2022/06/29 10:48:24;;;;;;;7.50;2.05;;;;;;;31.45;29.83;96554.84;5015826;28;20136;-62
2022/06/29 10:50:53;;;;;;;3.13;2.00;;;;;;;31.42;27.97;96552.50;5015960;28;20050;-62
2022/06/29 10:53:22;;;;;;;6.20;1.98;;;;;;;31.02;27.02;96547.47;5015863;28;20073;-62
2022/06/29 10:55:53;;;;;;;3.47;1.80;;;;;;;31.08;28.05;96554.81;5015791;28;20511;-61
2022/06/29 10:58:21;;;;;;;4.75;2.20;;;;;;;31.13;27.49;96555.09;5015837;28;20068;-61
2022/06/29 11:00:52;;;;;;;3.75;2.35;;;;;;;31.43;28.58;96546.09;5015770;28;20089;-62
2022/06/29 11:03:23;;;;;;;6.75;2.00;;;;;;;31.60;27.80;96551.28;5015674;28;20073;-62
2022/06/29 11:16:56;;;;;;;2.80;1.95;;;;;;;30.75;29.44;96545.22;5015448;28;20053;-61
2022/06/29 11:19:30;;;;;;;3.85;2.05;;;;;;;30.93;28.52;96544.03;5015633;28;20060;-62
2022/06/29 11:22:18;;;;;;;6.90;2.28;;;;;;;31.16;29.59;96540.38;5015265;28;20427;-62
2022/06/29 11:25:08;;;;;;;4.43;2.20;;;;;;;31.45;29.64;96538.63;5015250;28;20096;-62
2022/06/29 11:27:39;;;;;;;4.82;2.50;;;;;;;31.49;28.68;96542.66;5009391;28;20095;-62
2022/06/29 11:30:08;;;;;;;2.92;2.38;;;;;;;31.34;29.30;96537.25;5015077;28;20109;-62
2022/06/29 11:32:41;;;;;;;5.18;2.35;;;;;;;31.38;29.77;96537.72;5015099;28;20046;-62
2022/06/29 11:35:10;;;;;;;6.05;2.20;;;;;;;31.42;30.72;96530.09;5014966;28;20408;-62
2022/06/29 11:37:39;;;;;;;6.33;2.30;;;;;;;31.61;30.24;96529.47;5015106;28;20092;-62
2022/06/29 11:40:10;;;;;;;6.88;2.03;;;;;;;31.57;27.89;96524.63;5015003;28;20539;-62
2022/06/29 11:45:23;;;;;;;6.20;2.60;;;;;;;31.40;28.45;96523.00;5015055;28;20157;-61
2022/06/29 11:47:55;;;;;;;4.82;2.22;;;;;;;31.45;28.00;96518.91;5014928;28;20462;-62
2022/06/29 11:50:24;;;;;;;4.75;2.45;;;;;;;31.49;27.29;96522.88;5014757;28;20049;-62
2022/06/29 11:52:53;;;;;;;4.95;2.20;;;;;;;31.38;28.89;96514.25;5014903;28;20050;-61
2022/06/29 11:55:42;;;;;;;6.38;2.13;;;;;;;31.33;28.05;96523.94;5014734;28;20108;-61
2022/06/29 11:58:13;;;;;;;6.60;2.00;;;;;;;31.34;28.15;96512.94;5014674;28;20061;-62
2022/06/29 12:00:41;;;;;;;3.97;1.90;;;;;;;31.61;27.31;96509.69;5014550;28;20073;-62
2022/06/29 12:03:10;;;;;;;7.05;2.35;;;;;;;31.77;26.13;96511.28;5014574;28;20057;-62
2022/06/29 12:05:38;;;;;;;2.97;2.38;;;;;;;31.92;26.73;96508.53;5014493;28;20046;-62
2022/06/29 12:08:07;;;;;;;3.97;2.47;;;;;;;32.05;27.55;96512.41;5014352;28;20472;-62